RYR899T LIME-LEPA
Flight info
| Callsign | RYR899T |
|---|---|
| Flight time | 1h 37m |
| Altitude | 35000 |
| Route | ILFUG1PXVOG1S/28 VOG DCT GEKBA DCT VAMTU DCT KOLON DCT GANGU DCT PADKO DCT VATIR DCT PIVUS DCT BODEQ DCT VERSO L129 LUNIK |
| Aircraft | B38M/M-SDE1FGHILORVWXY/HB1 |
Departure
| Time | 2026-05-05 20:56 |
|---|---|
| Airport | Il Caravaggio International Airport (LIME) |
Arrival
| Time | 2026-05-05 22:33 |
|---|---|
| Airport | Palma de Mallorca Airport (LEPA) |
| Time | Latitude | Longitude | Altitude | Speed | Heading |
|---|---|---|---|---|---|
| 2026-05-05 20:20 | 45.66594 | 9.70394 | 790 ft | 0 kts | 195° |
| 2026-05-05 20:49 | 45.66589 | 9.70393 | 790 ft | 2 kts | 192° |
| 2026-05-05 20:49 | 45.66576 | 9.70389 | 790 ft | 3 kts | 189° |
| 2026-05-05 20:50 | 45.66549 | 9.70408 | 790 ft | 5 kts | 117° |
| 2026-05-05 20:50 | 45.66569 | 9.70447 | 790 ft | 6 kts | 22° |
| 2026-05-05 20:50 | 45.66622 | 9.70469 | 790 ft | 8 kts | 15° |
| 2026-05-05 20:50 | 45.66646 | 9.70489 | 790 ft | 3 kts | 63° |
| 2026-05-05 20:51 | 45.66646 | 9.70518 | 790 ft | 6 kts | 96° |
| 2026-05-05 20:51 | 45.66626 | 9.70628 | 790 ft | 15 kts | 105° |
| 2026-05-05 20:51 | 45.66603 | 9.70752 | 790 ft | 14 kts | 105° |
| 2026-05-05 20:51 | 45.66578 | 9.70893 | 790 ft | 16 kts | 104° |
| 2026-05-05 20:52 | 45.66549 | 9.71048 | 790 ft | 16 kts | 107° |
| 2026-05-05 20:52 | 45.66506 | 9.71204 | 790 ft | 18 kts | 112° |
| 2026-05-05 20:52 | 45.66483 | 9.71316 | 790 ft | 8 kts | 107° |
| 2026-05-05 20:52 | 45.66465 | 9.71405 | 790 ft | 7 kts | 102° |
| 2026-05-05 20:53 | 45.66458 | 9.71446 | 790 ft | 2 kts | 103° |
| 2026-05-05 20:53 | 45.66453 | 9.71478 | 790 ft | 4 kts | 104° |
| 2026-05-05 20:53 | 45.66443 | 9.71532 | 790 ft | 7 kts | 104° |
| 2026-05-05 20:53 | 45.66439 | 9.71610 | 790 ft | 9 kts | 84° |
| 2026-05-05 20:54 | 45.66455 | 9.71707 | 790 ft | 11 kts | 75° |
| 2026-05-05 20:54 | 45.66477 | 9.71825 | 790 ft | 13 kts | 76° |
| 2026-05-05 20:54 | 45.66518 | 9.71914 | 790 ft | 6 kts | 24° |
| 2026-05-05 20:54 | 45.66557 | 9.71896 | 790 ft | 7 kts | 301° |
| 2026-05-05 20:55 | 45.66573 | 9.71823 | 790 ft | 10 kts | 285° |
| 2026-05-05 20:55 | 45.66621 | 9.71572 | 790 ft | 59 kts | 285° |
| 2026-05-05 20:55 | 45.66792 | 9.70641 | 790 ft | 132 kts | 285° |
| 2026-05-05 20:55 | 45.67067 | 9.69098 | 943 ft | 180 kts | 285° |
| 2026-05-05 20:56 | 45.67384 | 9.67355 | 1383 ft | 180 kts | 287° |
| 2026-05-05 20:56 | 45.67697 | 9.65608 | 1507 ft | 185 kts | 278° |
| 2026-05-05 20:56 | 45.67378 | 9.63931 | 2253 ft | 174 kts | 222° |
| 2026-05-05 20:56 | 45.66307 | 9.63253 | 3014 ft | 174 kts | 183° |
| 2026-05-05 20:57 | 45.65084 | 9.63016 | 3760 ft | 181 kts | 196° |
| 2026-05-05 20:57 | 45.64024 | 9.62071 | 4569 ft | 184 kts | 220° |
| 2026-05-05 20:57 | 45.63088 | 9.60848 | 5054 ft | 185 kts | 222° |
| 2026-05-05 20:57 | 45.62151 | 9.59566 | 5781 ft | 195 kts | 223° |
| 2026-05-05 20:58 | 45.61170 | 9.58175 | 6729 ft | 198 kts | 224° |
| 2026-05-05 20:58 | 45.60207 | 9.56775 | 7658 ft | 198 kts | 225° |
| 2026-05-05 20:58 | 45.59227 | 9.55365 | 8503 ft | 202 kts | 224° |
| 2026-05-05 20:58 | 45.58221 | 9.53948 | 9382 ft | 204 kts | 224° |
| 2026-05-05 20:59 | 45.57209 | 9.52513 | 10214 ft | 207 kts | 224° |
| 2026-05-05 20:59 | 45.56187 | 9.51056 | 11009 ft | 208 kts | 225° |
| 2026-05-05 20:59 | 45.55167 | 9.49587 | 11802 ft | 210 kts | 225° |
| 2026-05-05 20:59 | 45.54135 | 9.48098 | 12588 ft | 211 kts | 225° |
| 2026-05-05 21:00 | 45.53101 | 9.46605 | 13370 ft | 213 kts | 226° |
| 2026-05-05 21:00 | 45.52056 | 9.45096 | 14125 ft | 214 kts | 226° |
| 2026-05-05 21:00 | 45.51020 | 9.43601 | 14809 ft | 215 kts | 226° |
| 2026-05-05 21:00 | 45.49975 | 9.42094 | 15520 ft | 215 kts | 226° |
| 2026-05-05 21:01 | 45.48923 | 9.40578 | 16217 ft | 215 kts | 225° |
| 2026-05-05 21:01 | 45.47725 | 9.39292 | 16882 ft | 217 kts | 212° |
| 2026-05-05 21:01 | 45.46426 | 9.38198 | 17548 ft | 218 kts | 213° |
| 2026-05-05 21:01 | 45.45118 | 9.37099 | 18124 ft | 219 kts | 212° |
| 2026-05-05 21:02 | 45.43796 | 9.35992 | 18626 ft | 223 kts | 212° |
| 2026-05-05 21:02 | 45.42462 | 9.34881 | 18909 ft | 221 kts | 212° |
| 2026-05-05 21:02 | 45.41131 | 9.33773 | 19046 ft | 221 kts | 212° |
| 2026-05-05 21:02 | 45.39817 | 9.32681 | 19111 ft | 224 kts | 212° |
| 2026-05-05 21:03 | 45.38432 | 9.31507 | 19282 ft | 240 kts | 216° |
| 2026-05-05 21:03 | 45.37159 | 9.29859 | 19456 ft | 257 kts | 225° |
| 2026-05-05 21:03 | 45.35851 | 9.28011 | 19743 ft | 271 kts | 224° |
| 2026-05-05 21:03 | 45.34500 | 9.26114 | 20297 ft | 273 kts | 224° |
| 2026-05-05 21:04 | 45.33149 | 9.24218 | 20897 ft | 275 kts | 224° |
| 2026-05-05 21:04 | 45.31788 | 9.22306 | 21469 ft | 277 kts | 224° |
| 2026-05-05 21:04 | 45.30418 | 9.20384 | 22047 ft | 278 kts | 224° |
| 2026-05-05 21:04 | 45.29035 | 9.18444 | 22634 ft | 280 kts | 224° |
| 2026-05-05 21:05 | 45.27643 | 9.16492 | 23192 ft | 282 kts | 224° |
| 2026-05-05 21:05 | 45.26245 | 9.14533 | 23714 ft | 284 kts | 224° |
| 2026-05-05 21:05 | 45.24830 | 9.12552 | 24170 ft | 286 kts | 224° |
| 2026-05-05 21:05 | 45.23438 | 9.10606 | 24636 ft | 288 kts | 224° |
| 2026-05-05 21:06 | 45.21976 | 9.08564 | 24747 ft | 303 kts | 224° |
| 2026-05-05 21:06 | 45.20432 | 9.06411 | 24771 ft | 320 kts | 224° |
| 2026-05-05 21:06 | 45.18807 | 9.04145 | 24801 ft | 336 kts | 224° |
| 2026-05-05 21:06 | 45.17103 | 9.01772 | 24866 ft | 350 kts | 224° |
| 2026-05-05 21:07 | 45.15349 | 8.99330 | 25211 ft | 355 kts | 224° |
| 2026-05-05 21:07 | 45.13587 | 8.96878 | 25750 ft | 356 kts | 224° |
| 2026-05-05 21:07 | 45.11828 | 8.94431 | 26206 ft | 358 kts | 224° |
| 2026-05-05 21:07 | 45.10073 | 8.91995 | 26694 ft | 359 kts | 224° |
| 2026-05-05 21:08 | 45.08287 | 8.89515 | 27165 ft | 361 kts | 224° |
| 2026-05-05 21:08 | 45.06489 | 8.87022 | 27622 ft | 362 kts | 224° |
| 2026-05-05 21:08 | 45.04686 | 8.84524 | 28074 ft | 364 kts | 225° |
| 2026-05-05 21:08 | 45.02873 | 8.82015 | 28559 ft | 365 kts | 224° |
| 2026-05-05 21:09 | 45.01059 | 8.79507 | 29047 ft | 366 kts | 225° |
| 2026-05-05 21:09 | 44.99237 | 8.76990 | 29470 ft | 368 kts | 225° |
| 2026-05-05 21:09 | 44.97404 | 8.74460 | 29882 ft | 369 kts | 225° |
| 2026-05-05 21:09 | 44.95562 | 8.71920 | 30249 ft | 371 kts | 225° |
| 2026-05-05 21:10 | 44.93717 | 8.69379 | 30586 ft | 372 kts | 225° |
| 2026-05-05 21:10 | 44.91887 | 8.66861 | 30934 ft | 373 kts | 225° |
| 2026-05-05 21:10 | 44.90033 | 8.64311 | 31391 ft | 371 kts | 225° |
| 2026-05-05 21:10 | 44.88187 | 8.61774 | 31900 ft | 369 kts | 225° |
| 2026-05-05 21:11 | 44.86356 | 8.59262 | 32364 ft | 366 kts | 225° |
| 2026-05-05 21:11 | 44.84542 | 8.56774 | 32882 ft | 362 kts | 225° |
| 2026-05-05 21:11 | 44.82744 | 8.54310 | 33406 ft | 359 kts | 225° |
| 2026-05-05 21:11 | 44.80961 | 8.51869 | 33880 ft | 357 kts | 225° |
| 2026-05-05 21:12 | 44.79186 | 8.49441 | 34268 ft | 355 kts | 225° |
| 2026-05-05 21:12 | 44.77433 | 8.47045 | 34511 ft | 357 kts | 225° |
| 2026-05-05 21:12 | 44.75656 | 8.44620 | 34748 ft | 359 kts | 225° |
| 2026-05-05 21:12 | 44.73856 | 8.42166 | 34924 ft | 361 kts | 225° |
| 2026-05-05 21:13 | 44.70238 | 8.37238 | 34958 ft | 362 kts | 224° |
| 2026-05-05 21:13 | 44.66626 | 8.32329 | 34988 ft | 361 kts | 224° |
| 2026-05-05 21:14 | 44.63013 | 8.27426 | 34969 ft | 360 kts | 224° |
| 2026-05-05 21:14 | 44.59430 | 8.22573 | 34971 ft | 361 kts | 224° |
| 2026-05-05 21:15 | 44.55825 | 8.17699 | 34970 ft | 361 kts | 224° |
| 2026-05-05 21:15 | 44.52207 | 8.12817 | 34968 ft | 361 kts | 224° |
| 2026-05-05 21:16 | 44.48585 | 8.07938 | 34973 ft | 362 kts | 224° |
| 2026-05-05 21:16 | 44.44986 | 8.03099 | 34967 ft | 360 kts | 224° |
| 2026-05-05 21:17 | 44.41369 | 7.98246 | 34969 ft | 360 kts | 224° |
| 2026-05-05 21:17 | 44.37742 | 7.93386 | 34981 ft | 364 kts | 224° |
| 2026-05-05 21:18 | 44.34087 | 7.88498 | 34963 ft | 364 kts | 224° |
| 2026-05-05 21:18 | 44.30434 | 7.83622 | 34985 ft | 363 kts | 224° |
| 2026-05-05 21:19 | 44.26805 | 7.78786 | 34919 ft | 363 kts | 224° |
| 2026-05-05 21:19 | 44.23143 | 7.73915 | 34941 ft | 364 kts | 224° |
| 2026-05-05 21:20 | 44.19492 | 7.69069 | 34972 ft | 363 kts | 224° |
| 2026-05-05 21:20 | 44.15831 | 7.64215 | 34953 ft | 363 kts | 224° |
| 2026-05-05 21:21 | 44.12478 | 7.59014 | 34990 ft | 362 kts | 229° |
| 2026-05-05 21:21 | 44.09205 | 7.53743 | 34957 ft | 363 kts | 228° |
| 2026-05-05 21:22 | 44.05883 | 7.48444 | 34950 ft | 364 kts | 228° |
| 2026-05-05 21:22 | 44.02553 | 7.43149 | 34971 ft | 364 kts | 228° |
| 2026-05-05 21:23 | 43.99224 | 7.37868 | 34943 ft | 363 kts | 228° |
| 2026-05-05 21:23 | 43.95923 | 7.32641 | 34963 ft | 361 kts | 228° |
| 2026-05-05 21:24 | 43.92615 | 7.27411 | 34960 ft | 360 kts | 228° |
| 2026-05-05 21:24 | 43.89311 | 7.22200 | 34958 ft | 360 kts | 228° |
| 2026-05-05 21:25 | 43.85999 | 7.16983 | 34947 ft | 361 kts | 228° |
| 2026-05-05 21:25 | 43.82706 | 7.11804 | 34939 ft | 359 kts | 228° |
| 2026-05-05 21:26 | 43.79398 | 7.06615 | 34952 ft | 360 kts | 228° |
| 2026-05-05 21:26 | 43.76085 | 7.01424 | 34970 ft | 360 kts | 228° |
| 2026-05-05 21:27 | 43.72812 | 6.96205 | 34956 ft | 360 kts | 234° |
| 2026-05-05 21:27 | 43.70701 | 6.89947 | 34944 ft | 364 kts | 243° |
| 2026-05-05 21:28 | 43.68740 | 6.83506 | 34989 ft | 364 kts | 244° |
| 2026-05-05 21:28 | 43.66806 | 6.77007 | 34964 ft | 367 kts | 244° |
| 2026-05-05 21:29 | 43.64877 | 6.70491 | 34966 ft | 366 kts | 244° |
| 2026-05-05 21:29 | 43.62964 | 6.64040 | 34936 ft | 366 kts | 244° |
| 2026-05-05 21:30 | 43.61033 | 6.57541 | 34947 ft | 366 kts | 244° |
| 2026-05-05 21:30 | 43.59101 | 6.51055 | 34947 ft | 365 kts | 244° |
| 2026-05-05 21:31 | 43.57165 | 6.44569 | 34986 ft | 366 kts | 244° |
| 2026-05-05 21:31 | 43.55229 | 6.38105 | 34938 ft | 364 kts | 244° |
| 2026-05-05 21:32 | 43.53308 | 6.31707 | 34937 ft | 365 kts | 244° |
| 2026-05-05 21:32 | 43.51365 | 6.25248 | 34938 ft | 365 kts | 244° |
| 2026-05-05 21:33 | 43.49417 | 6.18792 | 34937 ft | 365 kts | 244° |
| 2026-05-05 21:33 | 43.47468 | 6.12345 | 34934 ft | 365 kts | 244° |
| 2026-05-05 21:34 | 43.45530 | 6.05952 | 34948 ft | 364 kts | 244° |
| 2026-05-05 21:34 | 43.43582 | 5.99546 | 34930 ft | 364 kts | 244° |
| 2026-05-05 21:35 | 43.41628 | 5.93133 | 34923 ft | 364 kts | 244° |
| 2026-05-05 21:35 | 43.39672 | 5.86728 | 34921 ft | 363 kts | 244° |
| 2026-05-05 21:36 | 43.37710 | 5.80322 | 34929 ft | 364 kts | 244° |
| 2026-05-05 21:36 | 43.35758 | 5.73962 | 34926 ft | 363 kts | 244° |
| 2026-05-05 21:37 | 43.33794 | 5.67580 | 34942 ft | 364 kts | 243° |
| 2026-05-05 21:37 | 43.31816 | 5.61168 | 34933 ft | 365 kts | 243° |
| 2026-05-05 21:38 | 43.29833 | 5.54756 | 34921 ft | 364 kts | 243° |
| 2026-05-05 21:38 | 43.27867 | 5.48410 | 34906 ft | 363 kts | 243° |
| 2026-05-05 21:39 | 43.25891 | 5.42052 | 34931 ft | 363 kts | 243° |
| 2026-05-05 21:39 | 43.23902 | 5.35705 | 34920 ft | 362 kts | 241° |
| 2026-05-05 21:40 | 43.22478 | 5.32915 | 34926 ft | 357 kts | 224° |
| 2026-05-05 21:40 | 43.20643 | 5.30587 | 34913 ft | 362 kts | 223° |
| 2026-05-05 21:40 | 43.16893 | 5.26002 | 34923 ft | 365 kts | 221° |
| 2026-05-05 21:41 | 43.13057 | 5.21452 | 34917 ft | 364 kts | 221° |
| 2026-05-05 21:41 | 43.09210 | 5.16942 | 34903 ft | 364 kts | 221° |
| 2026-05-05 21:42 | 43.05362 | 5.12447 | 34911 ft | 365 kts | 221° |
| 2026-05-05 21:42 | 43.01529 | 5.07977 | 34913 ft | 364 kts | 221° |
| 2026-05-05 21:43 | 42.97671 | 5.03487 | 34911 ft | 364 kts | 221° |
| 2026-05-05 21:43 | 42.93810 | 4.99001 | 34911 ft | 364 kts | 221° |
| 2026-05-05 21:44 | 42.89948 | 4.94520 | 34926 ft | 365 kts | 221° |
| 2026-05-05 21:44 | 42.86069 | 4.90030 | 34913 ft | 367 kts | 221° |
| 2026-05-05 21:45 | 42.82201 | 4.85558 | 34913 ft | 367 kts | 221° |
| 2026-05-05 21:45 | 42.78309 | 4.81066 | 34914 ft | 367 kts | 221° |
| 2026-05-05 21:46 | 42.74415 | 4.76580 | 34911 ft | 367 kts | 221° |
| 2026-05-05 21:46 | 42.70518 | 4.72098 | 34914 ft | 367 kts | 221° |
| 2026-05-05 21:47 | 42.66656 | 4.67663 | 34914 ft | 367 kts | 221° |
| 2026-05-05 21:47 | 42.62758 | 4.63195 | 34914 ft | 367 kts | 221° |
| 2026-05-05 21:48 | 42.58857 | 4.58732 | 34909 ft | 367 kts | 221° |
| 2026-05-05 21:48 | 42.54937 | 4.54254 | 34917 ft | 371 kts | 221° |
| 2026-05-05 21:49 | 42.51017 | 4.49784 | 34895 ft | 369 kts | 222° |
| 2026-05-05 21:49 | 42.47103 | 4.45328 | 34911 ft | 368 kts | 222° |
| 2026-05-05 21:50 | 42.43185 | 4.40875 | 34919 ft | 368 kts | 222° |
| 2026-05-05 21:50 | 42.39265 | 4.36427 | 34920 ft | 368 kts | 222° |
| 2026-05-05 21:51 | 42.35367 | 4.32012 | 34917 ft | 368 kts | 222° |
| 2026-05-05 21:51 | 42.31444 | 4.27575 | 34886 ft | 368 kts | 222° |
| 2026-05-05 21:52 | 42.25565 | 4.20940 | 34914 ft | 368 kts | 222° |
| 2026-05-05 21:53 | 42.21639 | 4.16517 | 34931 ft | 368 kts | 222° |
| 2026-05-05 21:53 | 42.17704 | 4.12105 | 34920 ft | 368 kts | 220° |
| 2026-05-05 21:54 | 42.13266 | 4.08667 | 34904 ft | 372 kts | 213° |
| 2026-05-05 21:54 | 42.08732 | 4.05319 | 34915 ft | 373 kts | 213° |
| 2026-05-05 21:55 | 42.04178 | 4.01978 | 34918 ft | 373 kts | 213° |
| 2026-05-05 21:55 | 41.99623 | 3.98645 | 34920 ft | 373 kts | 213° |
| 2026-05-05 21:56 | 41.95068 | 3.95316 | 34922 ft | 373 kts | 213° |
| 2026-05-05 21:56 | 41.90192 | 3.92980 | 34922 ft | 384 kts | 197° |
| 2026-05-05 21:57 | 41.84904 | 3.91665 | 34909 ft | 389 kts | 197° |
| 2026-05-05 21:57 | 41.79575 | 3.90405 | 34921 ft | 389 kts | 197° |
| 2026-05-05 21:58 | 41.74242 | 3.89172 | 34920 ft | 389 kts | 197° |
| 2026-05-05 21:58 | 41.68944 | 3.87953 | 34898 ft | 389 kts | 197° |
| 2026-05-05 21:59 | 41.63589 | 3.86723 | 34919 ft | 391 kts | 197° |
| 2026-05-05 21:59 | 41.58243 | 3.85496 | 34920 ft | 391 kts | 197° |
| 2026-05-05 22:00 | 41.52885 | 3.84265 | 34922 ft | 391 kts | 197° |
| 2026-05-05 22:00 | 41.47620 | 3.83061 | 34728 ft | 377 kts | 197° |
| 2026-05-05 22:00 | 41.45071 | 3.82477 | 34509 ft | 367 kts | 198° |
| 2026-05-05 22:01 | 41.42571 | 3.81904 | 34301 ft | 363 kts | 198° |
| 2026-05-05 22:01 | 41.40093 | 3.81337 | 34096 ft | 360 kts | 198° |
| 2026-05-05 22:01 | 41.37650 | 3.80779 | 33903 ft | 357 kts | 198° |
| 2026-05-05 22:01 | 41.35206 | 3.80221 | 33680 ft | 355 kts | 198° |
| 2026-05-05 22:02 | 41.32783 | 3.79671 | 33434 ft | 352 kts | 198° |
| 2026-05-05 22:02 | 41.30371 | 3.79120 | 33200 ft | 351 kts | 198° |
| 2026-05-05 22:02 | 41.27972 | 3.78574 | 32946 ft | 349 kts | 199° |
| 2026-05-05 22:02 | 41.25584 | 3.78030 | 32713 ft | 347 kts | 199° |
| 2026-05-05 22:03 | 41.23209 | 3.77490 | 32488 ft | 346 kts | 199° |
| 2026-05-05 22:03 | 41.20872 | 3.76959 | 32254 ft | 345 kts | 199° |
| 2026-05-05 22:03 | 41.18513 | 3.76424 | 32027 ft | 343 kts | 199° |
| 2026-05-05 22:03 | 41.16163 | 3.75889 | 31797 ft | 341 kts | 199° |
| 2026-05-05 22:04 | 41.13960 | 3.75006 | 31431 ft | 325 kts | 210° |
| 2026-05-05 22:04 | 41.11871 | 3.73901 | 31011 ft | 324 kts | 208° |
| 2026-05-05 22:04 | 41.09779 | 3.72835 | 30622 ft | 321 kts | 208° |
| 2026-05-05 22:04 | 41.07710 | 3.71773 | 30243 ft | 317 kts | 208° |
| 2026-05-05 22:05 | 41.05661 | 3.70720 | 29824 ft | 314 kts | 208° |
| 2026-05-05 22:05 | 41.03634 | 3.69677 | 29448 ft | 310 kts | 208° |
| 2026-05-05 22:05 | 41.01636 | 3.68648 | 29098 ft | 306 kts | 208° |
| 2026-05-05 22:05 | 40.99695 | 3.67650 | 28767 ft | 304 kts | 208° |
| 2026-05-05 22:06 | 40.97701 | 3.66624 | 28424 ft | 310 kts | 208° |
| 2026-05-05 22:06 | 40.95679 | 3.65586 | 28088 ft | 313 kts | 208° |
| 2026-05-05 22:06 | 40.93647 | 3.64542 | 27734 ft | 313 kts | 208° |
| 2026-05-05 22:06 | 40.91620 | 3.63502 | 27390 ft | 312 kts | 208° |
| 2026-05-05 22:07 | 40.89612 | 3.62473 | 27045 ft | 310 kts | 208° |
| 2026-05-05 22:07 | 40.87609 | 3.61447 | 26711 ft | 308 kts | 208° |
| 2026-05-05 22:07 | 40.85617 | 3.60427 | 26381 ft | 306 kts | 208° |
| 2026-05-05 22:07 | 40.83634 | 3.59412 | 26035 ft | 305 kts | 209° |
| 2026-05-05 22:08 | 40.81660 | 3.58402 | 25728 ft | 304 kts | 209° |
| 2026-05-05 22:08 | 40.79720 | 3.57411 | 25412 ft | 302 kts | 209° |
| 2026-05-05 22:08 | 40.77762 | 3.56411 | 25095 ft | 301 kts | 209° |
| 2026-05-05 22:08 | 40.75818 | 3.55418 | 24780 ft | 299 kts | 209° |
| 2026-05-05 22:09 | 40.73880 | 3.54429 | 24463 ft | 298 kts | 209° |
| 2026-05-05 22:09 | 40.71949 | 3.53445 | 24151 ft | 297 kts | 209° |
| 2026-05-05 22:09 | 40.70030 | 3.52467 | 23841 ft | 295 kts | 209° |
| 2026-05-05 22:09 | 40.68121 | 3.51495 | 23543 ft | 294 kts | 209° |
| 2026-05-05 22:10 | 40.66229 | 3.50533 | 23185 ft | 292 kts | 208° |
| 2026-05-05 22:10 | 40.64362 | 3.49584 | 22860 ft | 291 kts | 208° |
| 2026-05-05 22:10 | 40.62479 | 3.48627 | 22547 ft | 289 kts | 208° |
| 2026-05-05 22:10 | 40.60603 | 3.47674 | 22238 ft | 288 kts | 208° |
| 2026-05-05 22:11 | 40.58738 | 3.46727 | 21949 ft | 287 kts | 208° |
| 2026-05-05 22:11 | 40.56877 | 3.45783 | 21651 ft | 286 kts | 208° |
| 2026-05-05 22:11 | 40.55024 | 3.44844 | 21353 ft | 284 kts | 208° |
| 2026-05-05 22:11 | 40.53184 | 3.43911 | 21058 ft | 283 kts | 207° |
| 2026-05-05 22:12 | 40.51349 | 3.42981 | 20764 ft | 282 kts | 207° |
| 2026-05-05 22:12 | 40.49521 | 3.42056 | 20475 ft | 281 kts | 207° |
| 2026-05-05 22:12 | 40.47728 | 3.41149 | 20189 ft | 280 kts | 207° |
| 2026-05-05 22:12 | 40.45918 | 3.40234 | 19964 ft | 278 kts | 207° |
| 2026-05-05 22:13 | 40.44068 | 3.39466 | 19932 ft | 285 kts | 194° |
| 2026-05-05 22:13 | 40.42056 | 3.39457 | 19914 ft | 294 kts | 187° |
| 2026-05-05 22:13 | 40.40003 | 3.39531 | 19925 ft | 296 kts | 187° |
| 2026-05-05 22:13 | 40.37895 | 3.39618 | 19074 ft | 314 kts | 186° |
| 2026-05-05 22:14 | 40.35700 | 3.39729 | 18508 ft | 319 kts | 185° |
| 2026-05-05 22:14 | 40.33473 | 3.39850 | 18023 ft | 321 kts | 185° |
| 2026-05-05 22:14 | 40.31278 | 3.39972 | 17608 ft | 318 kts | 184° |
| 2026-05-05 22:14 | 40.29080 | 3.40096 | 17261 ft | 314 kts | 184° |
| 2026-05-05 22:15 | 40.26916 | 3.40219 | 16926 ft | 306 kts | 184° |
| 2026-05-05 22:15 | 40.24835 | 3.40337 | 16623 ft | 292 kts | 185° |
| 2026-05-05 22:15 | 40.22849 | 3.40450 | 16332 ft | 279 kts | 185° |
| 2026-05-05 22:15 | 40.20954 | 3.40557 | 16046 ft | 267 kts | 185° |
| 2026-05-05 22:16 | 40.19126 | 3.40661 | 15751 ft | 262 kts | 185° |
| 2026-05-05 22:16 | 40.17269 | 3.40763 | 15461 ft | 273 kts | 185° |
| 2026-05-05 22:16 | 40.15383 | 3.40871 | 15185 ft | 278 kts | 184° |
| 2026-05-05 22:16 | 40.13446 | 3.40981 | 14901 ft | 279 kts | 184° |
| 2026-05-05 22:17 | 40.11507 | 3.41092 | 14634 ft | 279 kts | 184° |
| 2026-05-05 22:17 | 40.09568 | 3.41197 | 14396 ft | 282 kts | 179° |
| 2026-05-05 22:17 | 40.07577 | 3.41310 | 14304 ft | 286 kts | 183° |
| 2026-05-05 22:17 | 40.05605 | 3.41425 | 14102 ft | 281 kts | 184° |
| 2026-05-05 22:18 | 40.03670 | 3.41534 | 13795 ft | 276 kts | 184° |
| 2026-05-05 22:18 | 40.01762 | 3.41642 | 13402 ft | 274 kts | 184° |
| 2026-05-05 22:18 | 39.99863 | 3.41750 | 13039 ft | 273 kts | 183° |
| 2026-05-05 22:18 | 39.97965 | 3.41856 | 12792 ft | 272 kts | 183° |
| 2026-05-05 22:19 | 39.96094 | 3.41961 | 12776 ft | 274 kts | 183° |
| 2026-05-05 22:19 | 39.94186 | 3.42067 | 12787 ft | 275 kts | 183° |
| 2026-05-05 22:19 | 39.92285 | 3.42174 | 12784 ft | 275 kts | 183° |
| 2026-05-05 22:19 | 39.90377 | 3.42282 | 12783 ft | 275 kts | 183° |
| 2026-05-05 22:20 | 39.88469 | 3.42389 | 12789 ft | 275 kts | 183° |
| 2026-05-05 22:20 | 39.86559 | 3.42496 | 12790 ft | 275 kts | 183° |
| 2026-05-05 22:20 | 39.84648 | 3.42603 | 12791 ft | 275 kts | 183° |
| 2026-05-05 22:20 | 39.82740 | 3.42710 | 12737 ft | 275 kts | 183° |
| 2026-05-05 22:21 | 39.80829 | 3.42818 | 12258 ft | 275 kts | 183° |
| 2026-05-05 22:21 | 39.78946 | 3.42924 | 11743 ft | 274 kts | 183° |
| 2026-05-05 22:21 | 39.77048 | 3.43031 | 11188 ft | 272 kts | 182° |
| 2026-05-05 22:21 | 39.75159 | 3.43136 | 10631 ft | 271 kts | 182° |
| 2026-05-05 22:22 | 39.73287 | 3.43213 | 10111 ft | 267 kts | 188° |
| 2026-05-05 22:22 | 39.71541 | 3.42583 | 9557 ft | 258 kts | 213° |
| 2026-05-05 22:22 | 39.70251 | 3.41050 | 9002 ft | 251 kts | 237° |
| 2026-05-05 22:22 | 39.69562 | 3.38994 | 8475 ft | 248 kts | 256° |
| 2026-05-05 22:23 | 39.69239 | 3.36800 | 7981 ft | 246 kts | 259° |
| 2026-05-05 22:23 | 39.68954 | 3.34620 | 7481 ft | 244 kts | 260° |
| 2026-05-05 22:23 | 39.68699 | 3.32495 | 7080 ft | 240 kts | 260° |
| 2026-05-05 22:23 | 39.68459 | 3.30388 | 6752 ft | 232 kts | 261° |
| 2026-05-05 22:24 | 39.68232 | 3.28334 | 6459 ft | 231 kts | 261° |
| 2026-05-05 22:24 | 39.68004 | 3.26219 | 6247 ft | 240 kts | 262° |
| 2026-05-05 22:24 | 39.67773 | 3.24053 | 5940 ft | 244 kts | 262° |
| 2026-05-05 22:24 | 39.67544 | 3.21878 | 5652 ft | 243 kts | 262° |
| 2026-05-05 22:25 | 39.67315 | 3.19706 | 5381 ft | 242 kts | 262° |
| 2026-05-05 22:25 | 39.67089 | 3.17544 | 5135 ft | 241 kts | 263° |
| 2026-05-05 22:25 | 39.66862 | 3.15389 | 4874 ft | 241 kts | 263° |
| 2026-05-05 22:25 | 39.66636 | 3.13237 | 4586 ft | 240 kts | 263° |
| 2026-05-05 22:26 | 39.66410 | 3.11092 | 4223 ft | 240 kts | 263° |
| 2026-05-05 22:26 | 39.66184 | 3.08954 | 3842 ft | 239 kts | 263° |
| 2026-05-05 22:26 | 39.65963 | 3.06862 | 3554 ft | 233 kts | 263° |
| 2026-05-05 22:26 | 39.65747 | 3.04821 | 3270 ft | 223 kts | 263° |
| 2026-05-05 22:27 | 39.65542 | 3.02878 | 3039 ft | 212 kts | 263° |
| 2026-05-05 22:27 | 39.65347 | 3.01044 | 2841 ft | 201 kts | 263° |
| 2026-05-05 22:27 | 39.65162 | 2.99296 | 2633 ft | 191 kts | 262° |
| 2026-05-05 22:27 | 39.64986 | 2.97637 | 2554 ft | 182 kts | 262° |
| 2026-05-05 22:28 | 39.64755 | 2.96027 | 2490 ft | 181 kts | 249° |
| 2026-05-05 22:28 | 39.64165 | 2.94628 | 2474 ft | 175 kts | 241° |
| 2026-05-05 22:28 | 39.63561 | 2.93288 | 2485 ft | 174 kts | 242° |
| 2026-05-05 22:28 | 39.62949 | 2.91936 | 2459 ft | 174 kts | 242° |
| 2026-05-05 22:29 | 39.62331 | 2.90595 | 2441 ft | 173 kts | 241° |
| 2026-05-05 22:29 | 39.61703 | 2.89247 | 2261 ft | 175 kts | 240° |
| 2026-05-05 22:29 | 39.61078 | 2.87917 | 2103 ft | 168 kts | 240° |
| 2026-05-05 22:29 | 39.60489 | 2.86663 | 1897 ft | 159 kts | 240° |
| 2026-05-05 22:30 | 39.59930 | 2.85477 | 1683 ft | 147 kts | 239° |
| 2026-05-05 22:30 | 39.59415 | 2.84402 | 1559 ft | 137 kts | 238° |
| 2026-05-05 22:30 | 39.58913 | 2.83372 | 1293 ft | 137 kts | 238° |
| 2026-05-05 22:30 | 39.58419 | 2.82313 | 1096 ft | 137 kts | 238° |
| 2026-05-05 22:31 | 39.57927 | 2.81256 | 951 ft | 137 kts | 237° |
| 2026-05-05 22:31 | 39.57427 | 2.80199 | 764 ft | 137 kts | 239° |
| 2026-05-05 22:31 | 39.56943 | 2.79144 | 589 ft | 135 kts | 239° |
| 2026-05-05 22:31 | 39.56462 | 2.78110 | 425 ft | 133 kts | 239° |
| 2026-05-05 22:32 | 39.55989 | 2.77096 | 239 ft | 132 kts | 238° |
| 2026-05-05 22:32 | 39.55501 | 2.76074 | 64 ft | 135 kts | 237° |
| 2026-05-05 22:32 | 39.55048 | 2.75117 | 33 ft | 113 kts | 238° |
| 2026-05-05 22:32 | 39.54692 | 2.74369 | 33 ft | 74 kts | 238° |
| 2026-05-05 22:33 | 39.54569 | 2.74076 | 33 ft | 31 kts | 250° |
| 2026-05-05 22:33 | 39.54551 | 2.73867 | 33 ft | 13 kts | 269° |
| 2026-05-05 22:33 | 39.54551 | 2.73760 | 33 ft | 11 kts | 270° |
| 2026-05-05 22:33 | 39.54564 | 2.73668 | 33 ft | 2 kts | 333° |
| 2026-05-05 22:34 | 39.54578 | 2.73680 | 33 ft | 4 kts | 51° |
| 2026-05-05 22:34 | 39.54604 | 2.73734 | 33 ft | 10 kts | 58° |
| 2026-05-05 22:34 | 39.54652 | 2.73836 | 32 ft | 16 kts | 58° |
| 2026-05-05 22:34 | 39.54728 | 2.73959 | 32 ft | 14 kts | 15° |
| 2026-05-05 22:35 | 39.54781 | 2.73941 | 32 ft | 7 kts | 357° |
| 2026-05-05 22:35 | 39.54805 | 2.73967 | 32 ft | 5 kts | 62° |
| 2026-05-05 22:35 | 39.54845 | 2.74002 | 32 ft | 9 kts | 353° |
| 2026-05-05 22:35 | 39.54912 | 2.73951 | 32 ft | 14 kts | 328° |
| 2026-05-05 22:36 | 39.54995 | 2.73887 | 32 ft | 10 kts | 328° |
| 2026-05-05 22:36 | 39.55071 | 2.73827 | 32 ft | 16 kts | 326° |
| 2026-05-05 22:36 | 39.55160 | 2.73757 | 32 ft | 10 kts | 329° |
| 2026-05-05 22:36 | 39.55174 | 2.73680 | 32 ft | 10 kts | 236° |
| 2026-05-05 22:37 | 39.55167 | 2.73651 | 32 ft | 1 kts | 282° |
| 2026-05-05 22:37 | 39.55174 | 2.73643 | 32 ft | 4 kts | 324° |
| 2026-05-05 22:37 | 39.55216 | 2.73610 | 32 ft | 9 kts | 328° |
| 2026-05-05 22:37 | 39.55277 | 2.73561 | 32 ft | 10 kts | 328° |
| 2026-05-05 22:38 | 39.55344 | 2.73506 | 32 ft | 13 kts | 327° |
| 2026-05-05 22:38 | 39.55417 | 2.73448 | 32 ft | 8 kts | 324° |
| 2026-05-05 22:38 | 39.55421 | 2.73397 | 32 ft | 7 kts | 244° |
| 2026-05-05 22:38 | 39.55393 | 2.73336 | 32 ft | 9 kts | 239° |
| 2026-05-05 22:39 | 39.55355 | 2.73257 | 32 ft | 11 kts | 236° |
| 2026-05-05 22:39 | 39.55316 | 2.73194 | 32 ft | 9 kts | 213° |
| 2026-05-05 22:39 | 39.55262 | 2.73168 | 32 ft | 6 kts | 197° |
| 2026-05-05 22:39 | 39.55250 | 2.73163 | 32 ft | 3 kts | 197° |
| 2026-05-05 22:40 | 39.55226 | 2.73154 | 32 ft | 3 kts | 196° |
| 2026-05-05 22:40 | 39.55223 | 2.73153 | 32 ft | 0 kts | 195° |